La Grange, Illinois
Current Conditions -  °F | °C
As of 11:53 PM on Saturday 22 Nov 2014 (Local Time) from KMDW Reporting Station
Overcast Overcast  
Wind Chill: 51°   Ceiling: 2500
Heat Index: 51°   Visibility: 10mi
Dew Point: 47°   Wind: 13mph
Humidity: 86%   Direction: 200°SSW
Pressure: 29.87"   Gusts: NA
Location:  41.81°N, 87.87°W
Report Text: KMDW 230553Z 20011KT 10SM BKN025 BKN090 OVC300 11/08 A2987 RMK AO2 SLP116 T01060083 10122 20106 401220011 55006
Loading
Personal Weather Stations






























Interactive Weather Map New forecast layout! Learn more

10-Day Weather Forecast

Advertisements
Track Severe Weather on mobile